createdAt,value
2019-05-30T00:02:07.316Z,16.90
2019-05-30T00:04:33.375Z,17.07
2019-05-30T00:07:00.438Z,16.90
2019-05-30T00:09:26.481Z,16.43
2019-05-30T00:11:52.346Z,17.07
2019-05-30T00:14:18.209Z,15.53
2019-05-30T00:16:44.064Z,18.67
2019-05-30T00:19:09.962Z,17.10
2019-05-30T00:21:35.806Z,21.23
2019-05-30T00:24:02.085Z,17.07
2019-05-30T00:26:28.053Z,18.53
2019-05-30T00:28:53.901Z,20.90
2019-05-30T00:31:19.754Z,16.67
2019-05-30T00:33:45.822Z,18.87
2019-05-30T00:36:11.677Z,17.70
2019-05-30T00:38:37.529Z,18.73
2019-05-30T00:41:04.210Z,17.83
2019-05-30T00:43:30.244Z,18.03
2019-05-30T00:45:56.095Z,16.97
2019-05-30T00:48:21.966Z,18.47
2019-05-30T00:50:47.818Z,19.07
2019-05-30T00:53:13.797Z,16.90
2019-05-30T00:55:39.718Z,16.63
2019-05-30T00:58:07.321Z,18.73
2019-05-30T01:00:43.407Z,14.10
2019-05-30T01:03:03.598Z,11.53
2019-05-30T01:05:29.061Z,13.07
2019-05-30T01:07:54.913Z,13.03
2019-05-30T01:10:20.981Z,11.00
2019-05-30T01:12:46.956Z,13.67
2019-05-30T01:15:14.225Z,11.70
2019-05-30T01:17:40.082Z,11.03
2019-05-30T01:20:07.455Z,9.83
2019-05-30T01:22:33.500Z,9.07
2019-05-30T01:24:59.365Z,7.90
2019-05-30T01:27:25.222Z,8.30
2019-05-30T01:29:51.074Z,8.83
2019-05-30T01:32:29.144Z,12.37
2019-05-30T01:34:57.591Z,9.40
2019-05-30T01:37:23.654Z,7.43
2019-05-30T01:39:49.527Z,6.03
2019-05-30T01:42:15.427Z,7.73
2019-05-30T01:44:41.286Z,8.90
2019-05-30T01:47:08.299Z,10.63
2019-05-30T01:49:34.353Z,9.07
2019-05-30T01:52:00.360Z,7.63
2019-05-30T01:54:26.290Z,5.87
2019-05-30T01:56:53.306Z,8.60
2019-05-30T01:59:19.303Z,6.83
2019-05-30T02:01:45.474Z,7.37
2019-05-30T02:04:11.372Z,7.30
2019-05-30T02:06:38.206Z,7.30
2019-05-30T02:09:05.668Z,7.40
2019-05-30T02:11:31.516Z,8.13
2019-05-30T02:13:57.407Z,7.63
2019-05-30T02:16:23.336Z,7.07
2019-05-30T02:18:49.251Z,5.67
2019-05-30T02:21:15.070Z,4.27
2019-05-30T02:23:40.930Z,3.03
2019-05-30T02:26:06.795Z,4.10
2019-05-30T02:28:32.671Z,3.60
2019-05-30T02:30:58.525Z,4.73
2019-05-30T02:33:24.384Z,4.50
2019-05-30T02:35:50.543Z,3.00
2019-05-30T02:38:16.455Z,3.10
2019-05-30T02:40:42.313Z,4.80
2019-05-30T02:43:12.153Z,5.97
2019-05-30T02:45:38.449Z,4.50
2019-05-30T02:48:05.474Z,4.43
2019-05-30T02:50:35.988Z,5.67
2019-05-30T02:53:03.540Z,5.23
2019-05-30T02:55:29.617Z,7.77
2019-05-30T02:57:55.489Z,4.10
2019-05-30T03:00:32.021Z,5.10
2019-05-30T03:02:57.873Z,3.43
2019-05-30T03:05:23.735Z,3.60
2019-05-30T03:07:49.788Z,7.47
2019-05-30T03:10:16.055Z,3.63
2019-05-30T03:12:42.011Z,7.90
2019-05-30T03:15:11.777Z,3.33
2019-05-30T03:17:35.827Z,3.67
2019-05-30T03:20:07.962Z,8.27
2019-05-30T03:22:30.543Z,5.63
2019-05-30T03:24:56.434Z,3.83
2019-05-30T03:27:22.400Z,4.70
2019-05-30T03:29:48.246Z,7.30
2019-05-30T03:33:00.967Z,5.13
2019-05-30T03:34:41.893Z,6.80
2019-05-30T03:37:16.734Z,5.83
2019-05-30T03:39:35.501Z,4.93
2019-05-30T03:42:01.353Z,5.00
2019-05-30T03:44:27.303Z,3.90
2019-05-30T03:46:56.990Z,5.67
2019-05-30T03:49:26.655Z,8.43
2019-05-30T03:51:56.314Z,5.63
2019-05-30T03:54:24.759Z,5.67
2019-05-30T03:56:54.416Z,3.37
2019-05-30T03:59:29.842Z,6.97
2019-05-30T04:04:27.129Z,3.43
2019-05-30T04:06:56.821Z,4.57
2019-05-30T04:09:25.474Z,5.13
2019-05-30T04:12:21.087Z,5.73
2019-05-30T04:14:50.751Z,4.05
2019-05-30T04:17:18.297Z,5.70
2019-05-30T04:19:44.358Z,4.33
2019-05-30T04:22:11.602Z,6.27
2019-05-30T04:24:37.897Z,4.80
2019-05-30T04:27:03.741Z,6.37
2019-05-30T04:29:29.617Z,5.93
2019-05-30T04:31:55.464Z,6.00
2019-05-30T04:34:21.327Z,4.50
2019-05-30T04:36:47.194Z,6.03
2019-05-30T04:39:14.613Z,8.50
2019-05-30T04:41:40.790Z,6.27
2019-05-30T04:44:06.681Z,5.87
2019-05-30T04:46:32.531Z,4.73
2019-05-30T04:48:58.399Z,6.70
2019-05-30T04:51:24.376Z,4.40
2019-05-30T04:53:50.233Z,6.37
2019-05-30T04:56:17.034Z,7.67
2019-05-30T04:58:43.870Z,5.73
2019-05-30T05:01:11.007Z,6.87
2019-05-30T05:03:45.877Z,8.13
2019-05-30T05:06:04.846Z,9.60
2019-05-30T05:08:31.292Z,8.43
2019-05-30T05:10:57.160Z,9.43
2019-05-30T05:13:23.038Z,8.37
2019-05-30T05:15:48.903Z,8.70
2019-05-30T05:18:15.077Z,7.50
2019-05-30T05:20:41.046Z,7.63
2019-05-30T05:23:06.903Z,9.50
2019-05-30T05:25:32.756Z,8.70
2019-05-30T05:27:58.630Z,7.10
2019-05-30T05:30:26.260Z,10.27
2019-05-30T05:32:52.162Z,7.27
2019-05-30T05:35:18.702Z,9.60
2019-05-30T05:37:44.924Z,11.70
2019-05-30T05:40:11.233Z,12.27
2019-05-30T05:42:37.167Z,7.93
2019-05-30T05:45:07.267Z,9.43
2019-05-30T05:47:33.173Z,14.13
2019-05-30T05:49:59.117Z,8.73
2019-05-30T05:52:25.071Z,12.90
2019-05-30T05:54:50.960Z,12.77
2019-05-30T05:57:16.894Z,10.80
2019-05-30T05:59:42.756Z,12.07
2019-05-30T06:02:09.434Z,13.00
2019-05-30T06:04:35.434Z,7.67
2019-05-30T06:07:01.325Z,8.63
2019-05-30T06:09:27.246Z,9.73
2019-05-30T06:11:53.108Z,8.57
2019-05-30T06:14:19.860Z,10.67
2019-05-30T06:16:45.945Z,14.40
2019-05-30T06:19:11.812Z,11.03
2019-05-30T06:21:53.165Z,9.93
2019-05-30T06:24:08.746Z,16.27
2019-05-30T06:26:34.608Z,9.63
2019-05-30T06:29:00.577Z,9.67
2019-05-30T06:31:26.667Z,13.97
2019-05-30T06:33:52.683Z,11.03
2019-05-30T06:36:18.837Z,10.47
2019-05-30T06:38:44.795Z,11.53
2019-05-30T06:41:10.697Z,8.17
2019-05-30T06:43:36.551Z,11.13
2019-05-30T06:46:02.479Z,16.80
2019-05-30T06:48:28.784Z,20.07
2019-05-30T06:50:54.785Z,18.00
2019-05-30T06:53:21.002Z,11.73
2019-05-30T06:55:47.075Z,13.30
2019-05-30T06:58:12.933Z,11.10
2019-05-30T07:00:38.789Z,14.80
2019-05-30T07:03:04.741Z,14.63
2019-05-30T07:05:32.250Z,13.70
2019-05-30T07:07:59.220Z,13.80
2019-05-30T07:10:25.079Z,12.67
2019-05-30T07:12:50.973Z,14.20
2019-05-30T07:15:19.230Z,13.60
2019-05-30T07:17:45.250Z,11.60
2019-05-30T07:20:11.614Z,13.37
2019-05-30T07:22:37.489Z,12.67
2019-05-30T07:25:04.779Z,15.50
2019-05-30T07:27:30.639Z,18.97
2019-05-30T07:29:56.497Z,13.27
2019-05-30T07:32:22.374Z,15.90
2019-05-30T07:34:48.430Z,13.53
2019-05-30T07:37:14.347Z,16.13
2019-05-30T07:39:40.224Z,13.13
2019-05-30T07:42:06.928Z,11.33
2019-05-30T07:44:32.944Z,18.87
2019-05-30T07:46:58.802Z,15.53
2019-05-30T07:49:24.673Z,15.67
2019-05-30T07:51:50.844Z,16.47
2019-05-30T07:54:16.796Z,14.00
2019-05-30T07:56:42.900Z,14.30
2019-05-30T07:59:08.696Z,16.00
2019-05-30T08:01:34.715Z,15.53
2019-05-30T08:04:00.624Z,19.47
2019-05-30T08:06:27.466Z,16.70
2019-05-30T08:08:53.538Z,16.77
2019-05-30T08:11:19.501Z,20.07
2019-05-30T08:13:45.386Z,20.43
2019-05-30T08:16:11.257Z,19.13
2019-05-30T08:18:37.962Z,19.43
2019-05-30T08:21:04.016Z,15.70
2019-05-30T08:23:30.120Z,17.97
2019-05-30T08:25:56.051Z,21.27
2019-05-30T08:28:22.376Z,17.30
2019-05-30T08:30:49.211Z,21.33
2019-05-30T08:33:15.089Z,20.47
2019-05-30T08:35:49.150Z,20.03
2019-05-30T08:38:08.725Z,17.20
2019-05-30T08:40:35.391Z,18.17
2019-05-30T08:43:01.444Z,18.77
2019-05-30T08:45:27.617Z,18.30
2019-05-30T08:47:53.497Z,19.60
2019-05-30T08:50:19.760Z,17.07
2019-05-30T08:52:45.706Z,19.17
2019-05-30T08:55:12.364Z,20.80
2019-05-30T08:57:38.720Z,16.37
2019-05-30T09:00:06.392Z,18.23
2019-05-30T09:02:32.256Z,16.30
2019-05-30T09:04:58.110Z,16.20
2019-05-30T09:07:24.482Z,18.03
2019-05-30T09:09:50.352Z,17.60
2019-05-30T09:12:16.206Z,19.07
2019-05-30T09:14:42.843Z,26.27
2019-05-30T09:17:08.982Z,18.10
2019-05-30T09:19:34.852Z,24.40
2019-05-30T09:22:00.728Z,21.20
2019-05-30T09:24:26.588Z,15.67
2019-05-30T09:26:52.441Z,22.03
2019-05-30T09:29:18.328Z,22.03
2019-05-30T09:31:44.585Z,21.07
2019-05-30T09:34:12.120Z,21.13
2019-05-30T09:36:39.387Z,20.30
2019-05-30T09:39:06.880Z,16.47
2019-05-30T09:41:32.741Z,18.33
2019-05-30T09:43:58.599Z,23.87
2019-05-30T09:46:24.490Z,23.13
2019-05-30T09:48:51.713Z,22.30
2019-05-30T09:51:17.785Z,19.73
2019-05-30T09:53:43.883Z,16.83
2019-05-30T09:56:10.202Z,18.90
2019-05-30T09:58:36.050Z,19.60
2019-05-30T10:01:01.913Z,21.93
2019-05-30T10:03:27.778Z,18.77
2019-05-30T10:05:53.630Z,23.70
2019-05-30T10:08:19.573Z,19.47
2019-05-30T10:10:45.740Z,25.77
2019-05-30T10:13:13.427Z,24.40
2019-05-30T10:15:39.376Z,20.33
2019-05-30T10:18:05.544Z,18.67
2019-05-30T10:23:11.582Z,20.93
2019-05-30T10:25:37.555Z,22.47
2019-05-30T10:28:03.629Z,22.37
2019-05-30T10:30:29.795Z,17.67
2019-05-30T10:32:56.002Z,32.57
2019-05-30T10:35:22.144Z,17.87
2019-05-30T10:37:49.055Z,20.73
2019-05-30T10:40:15.796Z,17.63
2019-05-30T10:42:41.725Z,20.60
2019-05-30T10:45:09.278Z,23.80
2019-05-30T10:47:35.148Z,25.00
2019-05-30T10:50:01.909Z,23.73
2019-05-30T10:52:27.784Z,18.73
2019-05-30T10:54:53.647Z,20.80
2019-05-30T10:57:19.622Z,19.93
2019-05-30T10:59:45.968Z,25.63
2019-05-30T11:02:13.282Z,22.73
2019-05-30T11:04:39.144Z,22.40
2019-05-30T11:07:12.269Z,25.93
2019-05-30T11:09:41.645Z,42.30
2019-05-30T11:12:07.523Z,27.60
2019-05-30T11:14:33.390Z,29.77
2019-05-30T11:16:59.247Z,25.87
2019-05-30T11:19:25.129Z,27.10
2019-05-30T11:21:52.662Z,26.60
2019-05-30T11:24:18.817Z,30.63
2019-05-30T11:26:44.845Z,26.40
2019-05-30T11:29:10.695Z,29.17
2019-05-30T11:31:39.206Z,29.50
2019-05-30T11:34:05.202Z,30.63
2019-05-30T11:36:31.057Z,23.20
2019-05-30T11:38:57.418Z,23.00
2019-05-30T11:41:23.405Z,28.50
2019-05-30T11:43:51.206Z,25.85
2019-05-30T11:46:17.210Z,28.42
2019-05-30T11:48:49.578Z,25.97
2019-05-30T11:51:17.044Z,22.42
2019-05-30T11:53:49.755Z,25.15
2019-05-30T11:56:18.993Z,22.87
2019-05-30T11:58:44.801Z,26.05
2019-05-30T12:01:10.686Z,26.93
2019-05-30T12:03:36.538Z,22.67
2019-05-30T12:06:02.608Z,24.32
2019-05-30T12:08:28.482Z,25.23
2019-05-30T12:10:55.019Z,22.62
2019-05-30T12:13:21.781Z,27.00
2019-05-30T12:15:47.638Z,23.25
2019-05-30T12:18:13.547Z,23.10
2019-05-30T12:20:40.815Z,22.50
2019-05-30T12:23:06.666Z,22.75
2019-05-30T12:25:32.532Z,20.05
2019-05-30T12:27:58.400Z,19.55
2019-05-30T12:30:24.467Z,21.95
2019-05-30T12:32:50.319Z,20.80
2019-05-30T12:35:17.105Z,19.60
2019-05-30T12:37:54.234Z,17.62
2019-05-30T12:40:11.426Z,19.65
2019-05-30T12:42:37.902Z,20.23
2019-05-30T12:45:07.661Z,19.62
2019-05-30T12:47:38.490Z,18.90
2019-05-30T12:50:07.287Z,18.32
2019-05-30T12:52:33.168Z,17.25
2019-05-30T12:54:59.046Z,18.40
2019-05-30T12:57:24.915Z,15.70
2019-05-30T12:59:50.776Z,18.12
2019-05-30T13:02:16.616Z,14.10
2019-05-30T13:04:42.470Z,15.38
2019-05-30T13:07:08.411Z,15.65
2019-05-30T13:09:34.258Z,14.13
2019-05-30T13:12:00.540Z,15.18
2019-05-30T13:14:26.607Z,14.33
2019-05-30T13:16:52.456Z,14.00
2019-05-30T13:19:18.319Z,18.23
2019-05-30T13:21:44.175Z,19.65
2019-05-30T13:24:10.030Z,12.13
2019-05-30T13:26:35.886Z,13.78
2019-05-30T13:29:02.308Z,11.05
2019-05-30T13:31:28.349Z,9.55
2019-05-30T13:33:54.221Z,8.43
2019-05-30T13:36:20.099Z,10.08
2019-05-30T13:38:46.010Z,7.78
2019-05-30T13:41:11.862Z,8.43
2019-05-30T13:43:37.817Z,9.78
2019-05-30T13:46:06.382Z,9.50
2019-05-30T13:48:34.721Z,8.00
2019-05-30T13:51:00.795Z,8.05
2019-05-30T13:53:27.062Z,7.95
2019-05-30T13:55:53.026Z,8.93
2019-05-30T13:58:18.891Z,7.85
2019-05-30T14:00:44.748Z,6.83
2019-05-30T14:03:10.713Z,9.25
2019-05-30T14:05:36.590Z,9.35
2019-05-30T14:08:02.746Z,7.12
2019-05-30T14:10:28.819Z,6.05
2019-05-30T14:12:54.719Z,8.78
2019-05-30T14:15:20.658Z,7.55
2019-05-30T14:17:46.522Z,7.67
2019-05-30T14:20:14.531Z,11.10
2019-05-30T14:22:40.499Z,15.23
2019-05-30T14:25:07.526Z,14.93
2019-05-30T14:27:34.009Z,13.75
2019-05-30T14:30:04.651Z,16.70
2019-05-30T14:32:30.463Z,8.50
2019-05-30T14:34:56.364Z,10.15
2019-05-30T14:37:22.222Z,6.87
2019-05-30T14:39:48.115Z,10.90
2019-05-30T14:42:13.975Z,5.72
2019-05-30T14:44:39.829Z,9.03
2019-05-30T14:47:06.364Z,7.25
2019-05-30T14:49:32.290Z,10.65
2019-05-30T14:51:58.145Z,10.45
2019-05-30T14:54:24.012Z,9.38
2019-05-30T14:56:49.921Z,13.38
2019-05-30T14:59:15.779Z,18.20
2019-05-30T15:01:41.679Z,12.60
2019-05-30T15:04:07.535Z,10.28
2019-05-30T15:06:33.871Z,8.95
2019-05-30T15:09:15.300Z,10.08
2019-05-30T15:11:29.197Z,9.63
2019-05-30T15:13:58.499Z,12.73
2019-05-30T15:16:24.912Z,8.40
2019-05-30T15:18:55.310Z,7.60
2019-05-30T15:21:21.327Z,8.60
2019-05-30T15:23:47.225Z,4.95
2019-05-30T15:26:14.200Z,6.50
2019-05-30T15:28:40.130Z,5.97
2019-05-30T15:31:06.640Z,4.20
2019-05-30T15:33:32.757Z,4.33
2019-05-30T15:35:58.632Z,3.95
2019-05-30T15:38:24.486Z,3.60
2019-05-30T15:40:50.359Z,3.33
2019-05-30T15:43:16.220Z,3.05
2019-05-30T15:45:42.088Z,2.70
2019-05-30T15:48:08.302Z,4.95
2019-05-30T15:50:34.460Z,2.42
2019-05-30T15:53:00.339Z,2.67
2019-05-30T15:55:26.510Z,3.37
2019-05-30T15:57:52.378Z,2.85
2019-05-30T16:00:19.998Z,2.62
2019-05-30T16:02:46.046Z,4.78
2019-05-30T16:05:12.924Z,5.28
2019-05-30T16:07:38.789Z,2.60
2019-05-30T16:10:05.747Z,5.40
2019-05-30T16:12:31.679Z,5.60
2019-05-30T16:14:57.542Z,1.32
2019-05-30T16:17:23.424Z,2.58
2019-05-30T16:19:49.331Z,3.58
2019-05-30T16:22:16.278Z,1.10
2019-05-30T16:24:42.254Z,2.45
2019-05-30T16:27:08.124Z,3.27
2019-05-30T16:29:33.994Z,1.27
2019-05-30T16:31:59.883Z,1.60
2019-05-30T16:34:26.425Z,3.00
2019-05-30T16:36:52.295Z,3.52
2019-05-30T16:39:18.238Z,2.55
2019-05-30T16:41:44.117Z,3.90
2019-05-30T16:44:10.084Z,2.10
2019-05-30T16:46:35.955Z,3.27
2019-05-30T16:49:01.811Z,5.15
2019-05-30T16:51:27.664Z,9.30
2019-05-30T16:53:53.540Z,5.67
2019-05-30T16:56:19.476Z,3.67
2019-05-30T16:58:45.285Z,4.17
2019-05-30T17:01:11.130Z,4.60
2019-05-30T17:03:37.850Z,5.85
2019-05-30T17:06:03.886Z,2.85
2019-05-30T17:08:29.750Z,3.92
2019-05-30T17:10:55.623Z,4.55
2019-05-30T17:13:21.710Z,4.75
2019-05-30T17:15:47.567Z,4.65
2019-05-30T17:18:13.440Z,5.17
2019-05-30T17:20:39.342Z,3.77
2019-05-30T17:23:05.194Z,5.35
2019-05-30T17:25:31.059Z,3.25
2019-05-30T17:27:57.178Z,4.37
2019-05-30T17:30:23.763Z,5.92
2019-05-30T17:32:49.660Z,3.62
2019-05-30T17:35:16.119Z,4.12
2019-05-30T17:37:41.986Z,3.87
2019-05-30T17:40:10.817Z,4.20
2019-05-30T17:42:39.973Z,5.58
2019-05-30T17:45:06.933Z,7.30
2019-05-30T17:47:32.781Z,3.85
2019-05-30T17:49:58.642Z,2.67
2019-05-30T17:52:25.593Z,5.67
2019-05-30T17:54:51.713Z,3.65
2019-05-30T17:57:17.715Z,3.92
2019-05-30T17:59:43.589Z,4.10
2019-05-30T18:02:09.446Z,4.05
2019-05-30T18:04:35.321Z,7.42
2019-05-30T18:07:01.197Z,5.05
2019-05-30T18:09:27.201Z,4.42
2019-05-30T18:11:53.043Z,4.78
2019-05-30T18:14:18.907Z,4.08
2019-05-30T18:16:44.809Z,6.37
2019-05-30T18:19:10.711Z,4.25
2019-05-30T18:21:36.599Z,3.85
2019-05-30T18:24:03.170Z,4.83
2019-05-30T18:26:30.086Z,5.62
2019-05-30T18:28:55.943Z,5.35
2019-05-30T18:31:21.986Z,5.80
2019-05-30T18:33:47.887Z,4.60
2019-05-30T18:36:13.731Z,4.37
2019-05-30T18:38:39.604Z,5.50
2019-05-30T18:41:11.314Z,5.85
2019-05-30T18:43:33.222Z,5.55
2019-05-30T18:45:59.084Z,3.50
2019-05-30T18:48:25.278Z,6.05
2019-05-30T18:50:51.197Z,7.62
2019-05-30T18:53:17.060Z,6.70
2019-05-30T18:55:42.943Z,6.40
2019-05-30T18:58:08.836Z,6.62
2019-05-30T19:00:34.747Z,5.75
2019-05-30T19:03:00.617Z,4.05
2019-05-30T19:05:26.677Z,5.40
2019-05-30T19:07:52.539Z,5.47
2019-05-30T19:10:18.498Z,6.53
2019-05-30T19:12:46.529Z,6.05
2019-05-30T19:15:15.419Z,8.38
2019-05-30T19:17:41.368Z,6.75
2019-05-30T19:20:07.759Z,6.53
2019-05-30T19:22:34.207Z,4.60
2019-05-30T19:25:00.117Z,4.65
2019-05-30T19:27:26.283Z,7.87
2019-05-30T19:29:52.198Z,7.28
2019-05-30T19:32:18.058Z,4.33
2019-05-30T19:34:43.906Z,9.00
2019-05-30T19:37:09.865Z,5.62
2019-05-30T19:39:35.777Z,4.30
2019-05-30T19:42:01.571Z,6.90
2019-05-30T19:44:27.757Z,7.15
2019-05-30T19:46:53.780Z,8.98
2019-05-30T19:49:19.646Z,6.12
2019-05-30T19:51:45.513Z,7.12
2019-05-30T19:54:11.362Z,3.72
2019-05-30T19:56:39.934Z,7.67
2019-05-30T19:59:04.979Z,7.70
2019-05-30T20:01:31.714Z,6.17
2019-05-30T20:03:57.606Z,5.60
2019-05-30T20:06:24.826Z,6.47
2019-05-30T20:08:55.826Z,7.55
2019-05-30T20:11:23.014Z,7.28
2019-05-30T20:13:52.405Z,7.10
2019-05-30T20:16:20.771Z,8.83
2019-05-30T20:18:46.604Z,10.15
2019-05-30T20:21:12.468Z,8.00
2019-05-30T20:23:51.763Z,6.75
2019-05-30T20:26:06.109Z,6.15
2019-05-30T20:28:32.706Z,9.60
2019-05-30T20:30:58.642Z,7.25
2019-05-30T20:33:24.495Z,6.17
2019-05-30T20:35:51.172Z,12.10
2019-05-30T20:38:17.033Z,9.18
2019-05-30T20:40:43.054Z,5.90
2019-05-30T20:43:08.946Z,6.70
2019-05-30T20:45:38.425Z,6.53
2019-05-30T20:48:02.688Z,6.20
2019-05-30T20:50:28.567Z,9.43
2019-05-30T20:52:54.447Z,10.50
2019-05-30T20:55:20.315Z,17.80
2019-05-30T20:57:46.904Z,7.87
2019-05-30T21:00:14.855Z,11.73
2019-05-30T21:02:40.943Z,7.67
2019-05-30T21:05:08.268Z,9.88
2019-05-30T21:07:35.744Z,6.87
2019-05-30T21:10:05.267Z,7.85
2019-05-30T21:12:37.875Z,6.83
2019-05-30T21:15:03.810Z,9.30
2019-05-30T21:17:31.470Z,5.10
2019-05-30T21:19:57.507Z,9.08
2019-05-30T21:22:23.363Z,6.90
2019-05-30T21:24:49.226Z,7.87
2019-05-30T21:27:15.092Z,9.45
2019-05-30T21:29:41.142Z,9.73
2019-05-30T21:32:07.048Z,5.40
2019-05-30T21:34:33.074Z,7.25
2019-05-30T21:37:00.063Z,6.58
2019-05-30T21:39:25.917Z,18.30
2019-05-30T21:41:51.766Z,11.30
2019-05-30T21:44:17.635Z,5.08
2019-05-30T21:46:44.660Z,9.48
2019-05-30T21:49:10.653Z,8.33
2019-05-30T21:51:36.515Z,9.90
2019-05-30T21:54:02.417Z,6.28
2019-05-30T21:56:28.278Z,4.65
2019-05-30T21:58:54.141Z,4.30
2019-05-30T22:01:24.014Z,6.55
2019-05-30T22:03:51.003Z,6.60
2019-05-30T22:06:17.027Z,6.60
2019-05-30T22:08:43.058Z,5.25
2019-05-30T22:11:08.953Z,4.12
2019-05-30T22:13:34.808Z,3.20
2019-05-30T22:16:00.664Z,4.85
2019-05-30T22:18:26.516Z,8.28
2019-05-30T22:20:52.372Z,3.92
2019-05-30T22:23:18.233Z,7.17
2019-05-30T22:25:44.271Z,3.50
2019-05-30T22:28:10.142Z,5.00
2019-05-30T22:30:36.007Z,3.10
2019-05-30T22:33:05.301Z,3.15
2019-05-30T22:35:31.170Z,7.05
2019-05-30T22:37:57.048Z,6.95
2019-05-30T22:40:22.897Z,5.22
2019-05-30T22:42:48.767Z,4.03
2019-05-30T22:45:15.049Z,5.80
2019-05-30T22:47:40.930Z,6.75
2019-05-30T22:50:07.334Z,4.12
2019-05-30T22:52:33.240Z,4.25
2019-05-30T22:54:59.101Z,3.70
2019-05-30T22:57:24.947Z,3.67
2019-05-30T22:59:50.998Z,5.72
2019-05-30T23:02:20.765Z,5.67
2019-05-30T23:04:48.027Z,8.10
2019-05-30T23:07:13.977Z,6.55
2019-05-30T23:09:39.823Z,6.87
2019-05-30T23:12:05.685Z,6.33
2019-05-30T23:14:31.545Z,3.65
2019-05-30T23:16:57.422Z,3.95
2019-05-30T23:19:23.286Z,4.97
2019-05-30T23:21:49.170Z,9.73
2019-05-30T23:24:15.064Z,7.45
2019-05-30T23:26:40.924Z,6.42
2019-05-30T23:29:06.825Z,5.78
2019-05-30T23:31:32.670Z,3.98
2019-05-30T23:33:58.709Z,5.47
2019-05-30T23:36:24.590Z,2.70
2019-05-30T23:38:50.786Z,4.08
2019-05-30T23:41:16.731Z,7.45
2019-05-30T23:43:55.185Z,2.95
2019-05-30T23:46:10.347Z,7.15
2019-05-30T23:48:36.206Z,4.22
2019-05-30T23:51:02.053Z,5.15
2019-05-30T23:53:27.907Z,5.72
2019-05-30T23:55:54.287Z,6.78
2019-05-30T23:58:20.147Z,8.25
